createdAt,value
2019-05-26T11:16:18.122Z,22.40
2019-05-26T11:18:47.140Z,23.30
2019-05-26T11:21:15.736Z,23.70
2019-05-26T11:23:44.245Z,23.80
2019-05-26T11:26:12.985Z,23.60
2019-05-26T11:28:43.448Z,23.20
2019-05-26T11:31:33.041Z,23.50
2019-05-26T11:34:12.678Z,23.20
2019-05-26T11:36:48.708Z,22.90
2019-05-26T11:39:17.543Z,23.10
2019-05-26T11:41:54.362Z,23.40
2019-05-26T11:44:27.687Z,23.10
2019-05-26T11:46:58.413Z,22.60
2019-05-26T11:49:28.138Z,22.60
2019-05-26T11:52:02.693Z,23.40
2019-05-26T11:54:34.348Z,23.40
2019-05-26T11:57:01.971Z,23.50
2019-05-26T11:59:31.150Z,22.60
2019-05-26T12:02:00.887Z,22.00
2019-05-26T12:04:30.386Z,22.30
2019-05-26T12:07:04.346Z,22.40
2019-05-26T12:09:35.628Z,22.50
2019-05-26T12:12:08.963Z,23.20
2019-05-26T12:14:37.794Z,23.20
2019-05-26T12:17:06.497Z,22.80
2019-05-26T12:19:35.205Z,22.40
2019-05-26T12:22:04.582Z,21.90
2019-05-26T12:24:38.020Z,21.80
2019-05-26T12:27:06.777Z,22.10
2019-05-26T12:29:35.345Z,22.80
2019-05-26T12:32:07.813Z,23.10
2019-05-26T12:34:39.740Z,23.00
2019-05-26T12:37:08.810Z,22.40
2019-05-26T12:39:39.037Z,22.30
2019-05-26T12:42:08.727Z,22.70
2019-05-26T12:44:48.869Z,23.30
2019-05-26T12:47:12.680Z,23.80
2019-05-26T12:49:42.113Z,23.90
2019-05-26T12:52:11.651Z,23.60
2019-05-26T12:54:43.477Z,23.80
2019-05-26T12:57:29.449Z,23.40
2019-05-26T12:59:57.829Z,23.30
2019-05-26T13:02:27.864Z,23.00
2019-05-26T13:04:59.693Z,23.40
2019-05-26T13:07:29.032Z,23.80
2019-05-26T13:09:58.887Z,24.00
2019-05-26T13:12:33.663Z,24.00
2019-05-26T13:15:05.766Z,24.20
2019-05-26T13:17:36.323Z,24.20
2019-05-26T13:20:07.783Z,24.30
2019-05-26T13:22:37.502Z,24.30
2019-05-26T13:25:14.791Z,24.10
2019-05-26T13:27:46.339Z,24.00
2019-05-26T13:30:21.169Z,23.90
2019-05-26T13:32:50.726Z,23.90
2019-05-26T13:35:25.192Z,23.90
2019-05-26T13:37:59.205Z,23.90
2019-05-26T13:40:30.634Z,23.80
2019-05-26T13:43:02.925Z,23.90
2019-05-26T13:45:33.922Z,24.00
2019-05-26T13:48:02.995Z,24.00
2019-05-26T13:50:32.433Z,24.20
2019-05-26T13:53:01.806Z,24.40
2019-05-26T13:55:32.809Z,24.70
2019-05-26T13:58:03.680Z,24.90
2019-05-26T14:00:42.071Z,24.50
2019-05-26T14:03:11.480Z,23.70
2019-05-26T14:05:41.045Z,23.40
2019-05-26T14:08:13.486Z,23.30
2019-05-26T14:10:42.815Z,23.30
2019-05-26T14:13:11.903Z,23.50
2019-05-26T14:15:43.887Z,23.70
2019-05-26T14:18:13.890Z,23.90
2019-05-26T14:20:43.804Z,24.20
2019-05-26T14:23:15.557Z,24.00
2019-05-26T14:25:47.773Z,24.20
2019-05-26T14:28:19.459Z,24.10
2019-05-26T14:30:52.196Z,24.20
2019-05-26T14:33:23.227Z,23.90
2019-05-26T14:35:55.704Z,23.80
2019-05-26T14:38:42.641Z,23.80
2019-05-26T14:41:05.176Z,23.30
2019-05-26T14:43:37.489Z,23.00
2019-05-26T14:46:12.063Z,22.60
2019-05-26T14:48:42.858Z,22.40
2019-05-26T14:51:15.991Z,22.60
2019-05-26T14:53:50.339Z,22.80
2019-05-26T14:56:21.055Z,22.90
2019-05-26T14:58:51.756Z,23.30
2019-05-26T15:01:24.831Z,23.20
2019-05-26T15:03:56.655Z,23.30
2019-05-26T15:06:26.360Z,23.40
2019-05-26T15:08:55.543Z,23.00
2019-05-26T15:11:25.003Z,23.10
2019-05-26T15:13:55.206Z,23.30
2019-05-26T15:16:25.245Z,23.20
2019-05-26T15:18:54.330Z,23.10
2019-05-26T15:21:23.201Z,23.00
2019-05-26T15:23:54.024Z,22.90
2019-05-26T15:26:24.192Z,22.70
2019-05-26T15:28:56.351Z,23.00
2019-05-26T15:31:25.348Z,22.90
2019-05-26T15:33:55.865Z,23.00
2019-05-26T15:36:25.703Z,23.00
2019-05-26T15:38:56.222Z,22.90
2019-05-26T15:41:25.288Z,22.60
2019-05-26T15:43:56.008Z,22.50
2019-05-26T15:46:25.963Z,22.60
2019-05-26T15:48:56.585Z,22.60
2019-05-26T15:51:25.718Z,22.40
2019-05-26T15:53:55.012Z,22.40
2019-05-26T15:56:28.188Z,22.30
2019-05-26T15:58:57.878Z,22.10
2019-05-26T16:01:27.173Z,22.30
2019-05-26T16:03:56.458Z,22.40
2019-05-26T16:06:25.416Z,22.30
2019-05-26T16:08:54.690Z,22.20
2019-05-26T16:11:24.138Z,21.90
2019-05-26T16:13:52.933Z,21.60
2019-05-26T16:16:23.703Z,21.70
2019-05-26T16:18:52.718Z,21.60
2019-05-26T16:21:28.027Z,21.50
2019-05-26T16:23:55.458Z,21.70
2019-05-26T16:26:24.199Z,22.00
2019-05-26T16:28:53.021Z,21.60
